sensor_id;sensor_type;location;lat;lon;timestamp;P1;durP1;ratioP1;P2;durP2;ratioP2
9496;SDS011;4786;51.270;4.456;2023-03-31T00:00:31;9.80;;;4.13;;
9496;SDS011;4786;51.270;4.456;2023-03-31T00:02:57;9.97;;;4.37;;
9496;SDS011;4786;51.270;4.456;2023-03-31T00:05:24;10.03;;;3.70;;
9496;SDS011;4786;51.270;4.456;2023-03-31T00:07:54;11.80;;;3.37;;
9496;SDS011;4786;51.270;4.456;2023-03-31T00:10:29;11.87;;;3.80;;
9496;SDS011;4786;51.270;4.456;2023-03-31T00:12:57;12.57;;;4.30;;
9496;SDS011;4786;51.270;4.456;2023-03-31T00:15:24;7.63;;;3.60;;
9496;SDS011;4786;51.270;4.456;2023-03-31T00:17:51;11.53;;;3.60;;
9496;SDS011;4786;51.270;4.456;2023-03-31T00:20:17;11.23;;;3.53;;
9496;SDS011;4786;51.270;4.456;2023-03-31T00:22:43;19.73;;;4.43;;
9496;SDS011;4786;51.270;4.456;2023-03-31T00:25:12;9.30;;;3.63;;
9496;SDS011;4786;51.270;4.456;2023-03-31T00:27:43;15.13;;;3.90;;
9496;SDS011;4786;51.270;4.456;2023-03-31T00:30:10;16.83;;;4.43;;
9496;SDS011;4786;51.270;4.456;2023-03-31T00:32:39;15.83;;;4.53;;
9496;SDS011;4786;51.270;4.456;2023-03-31T00:35:06;16.00;;;4.03;;
9496;SDS011;4786;51.270;4.456;2023-03-31T00:37:32;16.40;;;4.13;;
9496;SDS011;4786;51.270;4.456;2023-03-31T00:39:59;15.80;;;4.03;;
9496;SDS011;4786;51.270;4.456;2023-03-31T00:42:25;12.70;;;3.80;;
9496;SDS011;4786;51.270;4.456;2023-03-31T00:47:39;15.77;;;3.73;;
9496;SDS011;4786;51.270;4.456;2023-03-31T00:50:13;17.70;;;4.50;;
9496;SDS011;4786;51.270;4.456;2023-03-31T00:52:42;14.63;;;4.03;;
9496;SDS011;4786;51.270;4.456;2023-03-31T00:55:17;16.10;;;3.80;;
9496;SDS011;4786;51.270;4.456;2023-03-31T00:57:47;14.87;;;3.90;;
9496;SDS011;4786;51.270;4.456;2023-03-31T01:00:14;15.47;;;4.20;;
9496;SDS011;4786;51.270;4.456;2023-03-31T01:02:44;16.03;;;3.80;;
9496;SDS011;4786;51.270;4.456;2023-03-31T01:05:20;13.73;;;3.90;;
9496;SDS011;4786;51.270;4.456;2023-03-31T01:07:48;15.20;;;4.10;;
9496;SDS011;4786;51.270;4.456;2023-03-31T01:10:17;16.50;;;3.47;;
9496;SDS011;4786;51.270;4.456;2023-03-31T01:12:44;14.87;;;3.50;;
9496;SDS011;4786;51.270;4.456;2023-03-31T01:15:13;17.17;;;3.63;;
9496;SDS011;4786;51.270;4.456;2023-03-31T01:17:40;12.47;;;3.70;;
9496;SDS011;4786;51.270;4.456;2023-03-31T01:28:30;12.70;;;3.27;;
9496;SDS011;4786;51.270;4.456;2023-03-31T01:33:55;11.87;;;3.50;;
9496;SDS011;4786;51.270;4.456;2023-03-31T01:36:33;12.23;;;3.30;;
9496;SDS011;4786;51.270;4.456;2023-03-31T01:40:03;9.60;;;3.00;;
9496;SDS011;4786;51.270;4.456;2023-03-31T01:58:45;11.23;;;2.90;;
9496;SDS011;4786;51.270;4.456;2023-03-31T02:01:26;11.13;;;2.80;;
9496;SDS011;4786;51.270;4.456;2023-03-31T02:03:57;13.17;;;3.17;;
9496;SDS011;4786;51.270;4.456;2023-03-31T02:06:34;8.47;;;2.50;;
9496;SDS011;4786;51.270;4.456;2023-03-31T02:09:07;8.73;;;2.83;;
9496;SDS011;4786;51.270;4.456;2023-03-31T02:11:37;7.60;;;2.70;;
9496;SDS011;4786;51.270;4.456;2023-03-31T02:14:07;9.13;;;2.67;;
9496;SDS011;4786;51.270;4.456;2023-03-31T02:16:37;9.23;;;2.70;;
9496;SDS011;4786;51.270;4.456;2023-03-31T02:19:11;9.70;;;3.23;;
9496;SDS011;4786;51.270;4.456;2023-03-31T02:21:42;9.93;;;3.40;;
9496;SDS011;4786;51.270;4.456;2023-03-31T02:24:14;9.57;;;3.47;;
9496;SDS011;4786;51.270;4.456;2023-03-31T02:29:18;11.00;;;2.97;;
9496;SDS011;4786;51.270;4.456;2023-03-31T02:34:25;9.53;;;3.27;;
9496;SDS011;4786;51.270;4.456;2023-03-31T02:36:51;11.67;;;3.57;;
9496;SDS011;4786;51.270;4.456;2023-03-31T02:39:19;9.53;;;3.17;;
9496;SDS011;4786;51.270;4.456;2023-03-31T02:41:49;9.83;;;3.53;;
9496;SDS011;4786;51.270;4.456;2023-03-31T02:44:15;14.80;;;3.80;;
9496;SDS011;4786;51.270;4.456;2023-03-31T02:46:42;14.83;;;4.40;;
9496;SDS011;4786;51.270;4.456;2023-03-31T02:49:09;9.40;;;3.90;;
9496;SDS011;4786;51.270;4.456;2023-03-31T02:51:39;11.10;;;3.10;;
9496;SDS011;4786;51.270;4.456;2023-03-31T03:05:12;10.70;;;3.60;;
9496;SDS011;4786;51.270;4.456;2023-03-31T03:13:40;9.70;;;3.10;;
9496;SDS011;4786;51.270;4.456;2023-03-31T03:19:03;9.90;;;2.70;;
9496;SDS011;4786;51.270;4.456;2023-03-31T03:21:31;8.27;;;2.70;;
9496;SDS011;4786;51.270;4.456;2023-03-31T03:23:58;10.83;;;2.70;;
9496;SDS011;4786;51.270;4.456;2023-03-31T03:26:24;7.43;;;2.67;;
9496;SDS011;4786;51.270;4.456;2023-03-31T03:28:52;8.23;;;2.10;;
9496;SDS011;4786;51.270;4.456;2023-03-31T03:31:22;10.50;;;2.60;;
9496;SDS011;4786;51.270;4.456;2023-03-31T03:33:49;7.57;;;2.30;;
9496;SDS011;4786;51.270;4.456;2023-03-31T03:36:15;10.43;;;2.47;;
9496;SDS011;4786;51.270;4.456;2023-03-31T03:38:41;7.30;;;2.60;;
9496;SDS011;4786;51.270;4.456;2023-03-31T03:41:07;7.97;;;2.50;;
9496;SDS011;4786;51.270;4.456;2023-03-31T03:43:34;8.23;;;2.33;;
9496;SDS011;4786;51.270;4.456;2023-03-31T03:46:00;9.47;;;3.27;;
9496;SDS011;4786;51.270;4.456;2023-03-31T03:48:25;7.13;;;2.67;;
9496;SDS011;4786;51.270;4.456;2023-03-31T03:50:51;8.47;;;2.73;;
9496;SDS011;4786;51.270;4.456;2023-03-31T03:53:18;10.30;;;2.80;;
9496;SDS011;4786;51.270;4.456;2023-03-31T03:55:44;10.13;;;3.17;;
9496;SDS011;4786;51.270;4.456;2023-03-31T03:58:13;7.43;;;2.47;;
9496;SDS011;4786;51.270;4.456;2023-03-31T04:00:39;11.43;;;2.80;;
9496;SDS011;4786;51.270;4.456;2023-03-31T04:03:05;11.67;;;2.80;;
9496;SDS011;4786;51.270;4.456;2023-03-31T04:05:31;8.67;;;2.87;;
9496;SDS011;4786;51.270;4.456;2023-03-31T04:07:57;10.70;;;3.10;;
9496;SDS011;4786;51.270;4.456;2023-03-31T04:10:23;10.00;;;2.80;;
9496;SDS011;4786;51.270;4.456;2023-03-31T04:12:48;8.77;;;2.73;;
9496;SDS011;4786;51.270;4.456;2023-03-31T04:15:15;11.50;;;3.17;;
9496;SDS011;4786;51.270;4.456;2023-03-31T04:17:41;13.77;;;3.50;;
9496;SDS011;4786;51.270;4.456;2023-03-31T04:20:15;8.07;;;2.73;;
9496;SDS011;4786;51.270;4.456;2023-03-31T04:22:42;7.00;;;2.83;;
9496;SDS011;4786;51.270;4.456;2023-03-31T04:25:11;6.07;;;2.10;;
9496;SDS011;4786;51.270;4.456;2023-03-31T04:27:42;5.30;;;2.27;;
9496;SDS011;4786;51.270;4.456;2023-03-31T04:30:11;8.97;;;2.63;;
9496;SDS011;4786;51.270;4.456;2023-03-31T04:32:46;8.70;;;2.00;;
9496;SDS011;4786;51.270;4.456;2023-03-31T04:35:14;5.80;;;2.27;;
9496;SDS011;4786;51.270;4.456;2023-03-31T04:37:42;6.20;;;2.30;;
9496;SDS011;4786;51.270;4.456;2023-03-31T04:40:08;6.10;;;2.00;;
9496;SDS011;4786;51.270;4.456;2023-03-31T04:42:34;5.70;;;1.90;;
9496;SDS011;4786;51.270;4.456;2023-03-31T04:45:01;5.67;;;2.17;;
9496;SDS011;4786;51.270;4.456;2023-03-31T04:47:27;6.07;;;2.13;;
9496;SDS011;4786;51.270;4.456;2023-03-31T04:49:54;4.43;;;1.90;;
9496;SDS011;4786;51.270;4.456;2023-03-31T04:52:20;4.13;;;1.93;;
9496;SDS011;4786;51.270;4.456;2023-03-31T04:54:45;7.90;;;2.37;;
9496;SDS011;4786;51.270;4.456;2023-03-31T04:57:11;7.50;;;2.20;;
9496;SDS011;4786;51.270;4.456;2023-03-31T04:59:37;7.63;;;2.50;;
9496;SDS011;4786;51.270;4.456;2023-03-31T05:02:03;5.67;;;1.93;;
9496;SDS011;4786;51.270;4.456;2023-03-31T05:04:29;7.03;;;2.20;;
9496;SDS011;4786;51.270;4.456;2023-03-31T05:06:55;8.07;;;2.37;;
9496;SDS011;4786;51.270;4.456;2023-03-31T05:09:21;4.13;;;1.90;;
9496;SDS011;4786;51.270;4.456;2023-03-31T05:11:47;13.07;;;2.40;;
9496;SDS011;4786;51.270;4.456;2023-03-31T05:14:13;6.40;;;2.20;;
9496;SDS011;4786;51.270;4.456;2023-03-31T05:16:39;6.93;;;2.40;;
9496;SDS011;4786;51.270;4.456;2023-03-31T05:19:06;4.57;;;2.00;;
9496;SDS011;4786;51.270;4.456;2023-03-31T05:21:32;5.13;;;2.10;;
9496;SDS011;4786;51.270;4.456;2023-03-31T05:23:57;7.67;;;2.10;;
9496;SDS011;4786;51.270;4.456;2023-03-31T05:26:24;7.27;;;2.20;;
9496;SDS011;4786;51.270;4.456;2023-03-31T05:28:50;8.97;;;2.50;;
9496;SDS011;4786;51.270;4.456;2023-03-31T05:31:17;6.47;;;1.97;;
9496;SDS011;4786;51.270;4.456;2023-03-31T05:33:43;9.47;;;2.07;;
9496;SDS011;4786;51.270;4.456;2023-03-31T05:36:13;4.03;;;1.90;;
9496;SDS011;4786;51.270;4.456;2023-03-31T05:38:40;5.13;;;1.80;;
9496;SDS011;4786;51.270;4.456;2023-03-31T05:41:08;5.53;;;1.70;;
9496;SDS011;4786;51.270;4.456;2023-03-31T05:43:35;2.13;;;1.50;;
9496;SDS011;4786;51.270;4.456;2023-03-31T05:46:03;4.47;;;1.80;;
9496;SDS011;4786;51.270;4.456;2023-03-31T05:48:29;2.70;;;1.83;;
9496;SDS011;4786;51.270;4.456;2023-03-31T05:50:56;5.50;;;2.00;;
9496;SDS011;4786;51.270;4.456;2023-03-31T05:53:22;6.63;;;2.20;;
9496;SDS011;4786;51.270;4.456;2023-03-31T05:55:49;7.53;;;2.97;;
9496;SDS011;4786;51.270;4.456;2023-03-31T05:58:24;9.03;;;2.63;;
9496;SDS011;4786;51.270;4.456;2023-03-31T06:00:58;10.10;;;3.10;;
9496;SDS011;4786;51.270;4.456;2023-03-31T06:03:35;11.07;;;3.23;;
9496;SDS011;4786;51.270;4.456;2023-03-31T06:06:03;15.20;;;3.20;;
9496;SDS011;4786;51.270;4.456;2023-03-31T06:08:30;10.60;;;3.07;;
9496;SDS011;4786;51.270;4.456;2023-03-31T06:10:56;9.27;;;2.83;;
9496;SDS011;4786;51.270;4.456;2023-03-31T06:13:22;11.20;;;2.97;;
9496;SDS011;4786;51.270;4.456;2023-03-31T06:15:52;11.53;;;3.33;;
9496;SDS011;4786;51.270;4.456;2023-03-31T06:18:20;9.90;;;3.13;;
9496;SDS011;4786;51.270;4.456;2023-03-31T06:20:46;8.93;;;3.23;;
9496;SDS011;4786;51.270;4.456;2023-03-31T06:23:12;11.90;;;3.20;;
9496;SDS011;4786;51.270;4.456;2023-03-31T06:25:38;11.37;;;3.60;;
9496;SDS011;4786;51.270;4.456;2023-03-31T06:28:04;10.03;;;3.23;;
9496;SDS011;4786;51.270;4.456;2023-03-31T06:30:31;15.30;;;3.60;;
9496;SDS011;4786;51.270;4.456;2023-03-31T06:32:57;14.00;;;3.87;;
9496;SDS011;4786;51.270;4.456;2023-03-31T06:35:24;9.97;;;3.00;;
9496;SDS011;4786;51.270;4.456;2023-03-31T06:37:49;15.83;;;3.80;;
9496;SDS011;4786;51.270;4.456;2023-03-31T06:40:16;10.43;;;3.27;;
9496;SDS011;4786;51.270;4.456;2023-03-31T06:42:42;14.33;;;3.63;;
9496;SDS011;4786;51.270;4.456;2023-03-31T06:45:08;13.77;;;3.87;;
9496;SDS011;4786;51.270;4.456;2023-03-31T06:47:34;12.53;;;3.70;;
9496;SDS011;4786;51.270;4.456;2023-03-31T06:50:06;14.33;;;4.07;;
9496;SDS011;4786;51.270;4.456;2023-03-31T06:52:40;10.57;;;3.60;;
9496;SDS011;4786;51.270;4.456;2023-03-31T06:55:06;13.53;;;3.80;;
9496;SDS011;4786;51.270;4.456;2023-03-31T06:57:33;10.47;;;3.77;;
9496;SDS011;4786;51.270;4.456;2023-03-31T06:59:59;15.43;;;3.77;;
9496;SDS011;4786;51.270;4.456;2023-03-31T07:02:25;17.80;;;3.87;;
9496;SDS011;4786;51.270;4.456;2023-03-31T07:04:50;15.77;;;3.97;;
9496;SDS011;4786;51.270;4.456;2023-03-31T07:07:16;15.63;;;4.13;;
9496;SDS011;4786;51.270;4.456;2023-03-31T07:09:41;15.33;;;4.57;;
9496;SDS011;4786;51.270;4.456;2023-03-31T07:12:08;16.37;;;4.57;;
9496;SDS011;4786;51.270;4.456;2023-03-31T07:14:34;16.20;;;4.13;;
9496;SDS011;4786;51.270;4.456;2023-03-31T07:17:00;15.70;;;4.17;;
9496;SDS011;4786;51.270;4.456;2023-03-31T07:19:27;13.77;;;4.10;;
9496;SDS011;4786;51.270;4.456;2023-03-31T07:21:52;16.00;;;4.80;;
9496;SDS011;4786;51.270;4.456;2023-03-31T07:24:18;15.70;;;3.93;;
9496;SDS011;4786;51.270;4.456;2023-03-31T07:26:45;14.87;;;4.00;;
9496;SDS011;4786;51.270;4.456;2023-03-31T07:29:11;12.50;;;3.93;;
9496;SDS011;4786;51.270;4.456;2023-03-31T07:31:37;15.30;;;4.43;;
9496;SDS011;4786;51.270;4.456;2023-03-31T07:34:03;16.87;;;4.60;;
9496;SDS011;4786;51.270;4.456;2023-03-31T07:36:29;11.90;;;3.90;;
9496;SDS011;4786;51.270;4.456;2023-03-31T07:38:56;16.40;;;4.47;;
9496;SDS011;4786;51.270;4.456;2023-03-31T07:41:22;14.90;;;3.77;;
9496;SDS011;4786;51.270;4.456;2023-03-31T07:43:49;17.03;;;4.57;;
9496;SDS011;4786;51.270;4.456;2023-03-31T07:46:16;19.93;;;4.67;;
9496;SDS011;4786;51.270;4.456;2023-03-31T07:48:44;20.20;;;5.00;;
9496;SDS011;4786;51.270;4.456;2023-03-31T07:51:12;15.93;;;4.37;;
9496;SDS011;4786;51.270;4.456;2023-03-31T07:53:39;15.97;;;4.17;;
9496;SDS011;4786;51.270;4.456;2023-03-31T07:56:05;15.20;;;4.40;;
9496;SDS011;4786;51.270;4.456;2023-03-31T07:58:31;15.20;;;3.80;;
9496;SDS011;4786;51.270;4.456;2023-03-31T08:00:56;12.63;;;3.90;;
9496;SDS011;4786;51.270;4.456;2023-03-31T08:03:22;14.67;;;4.63;;
9496;SDS011;4786;51.270;4.456;2023-03-31T08:05:51;15.63;;;4.23;;
9496;SDS011;4786;51.270;4.456;2023-03-31T08:08:19;14.47;;;3.97;;
9496;SDS011;4786;51.270;4.456;2023-03-31T08:10:46;15.00;;;4.10;;
9496;SDS011;4786;51.270;4.456;2023-03-31T08:13:12;26.40;;;4.97;;
9496;SDS011;4786;51.270;4.456;2023-03-31T08:15:38;16.23;;;4.87;;
9496;SDS011;4786;51.270;4.456;2023-03-31T08:18:04;19.10;;;4.63;;
9496;SDS011;4786;51.270;4.456;2023-03-31T08:20:30;15.30;;;4.50;;
9496;SDS011;4786;51.270;4.456;2023-03-31T08:22:57;14.30;;;3.83;;
9496;SDS011;4786;51.270;4.456;2023-03-31T08:25:23;13.70;;;4.53;;
9496;SDS011;4786;51.270;4.456;2023-03-31T08:27:49;18.07;;;4.50;;
9496;SDS011;4786;51.270;4.456;2023-03-31T08:30:16;18.33;;;5.23;;
9496;SDS011;4786;51.270;4.456;2023-03-31T08:32:43;12.73;;;4.17;;
9496;SDS011;4786;51.270;4.456;2023-03-31T08:35:09;16.73;;;5.30;;
9496;SDS011;4786;51.270;4.456;2023-03-31T08:37:36;18.17;;;4.27;;
9496;SDS011;4786;51.270;4.456;2023-03-31T08:40:04;17.77;;;4.27;;
9496;SDS011;4786;51.270;4.456;2023-03-31T08:48:05;17.43;;;4.53;;
9496;SDS011;4786;51.270;4.456;2023-03-31T08:50:43;19.03;;;5.00;;
9496;SDS011;4786;51.270;4.456;2023-03-31T08:55:50;18.63;;;4.70;;
9496;SDS011;4786;51.270;4.456;2023-03-31T09:00:52;13.93;;;4.33;;
9496;SDS011;4786;51.270;4.456;2023-03-31T09:03:26;15.70;;;4.60;;
9496;SDS011;4786;51.270;4.456;2023-03-31T09:06:10;13.60;;;3.80;;
9496;SDS011;4786;51.270;4.456;2023-03-31T09:08:41;13.30;;;3.97;;
9496;SDS011;4786;51.270;4.456;2023-03-31T09:17:18;16.30;;;4.47;;
9496;SDS011;4786;51.270;4.456;2023-03-31T09:19:55;11.97;;;3.80;;
9496;SDS011;4786;51.270;4.456;2023-03-31T09:22:29;11.83;;;4.20;;
9496;SDS011;4786;51.270;4.456;2023-03-31T09:27:38;15.23;;;3.87;;
9496;SDS011;4786;51.270;4.456;2023-03-31T09:33:02;13.13;;;3.80;;
9496;SDS011;4786;51.270;4.456;2023-03-31T09:35:33;14.23;;;3.83;;
9496;SDS011;4786;51.270;4.456;2023-03-31T09:37:59;12.53;;;3.70;;
9496;SDS011;4786;51.270;4.456;2023-03-31T09:40:26;12.10;;;3.90;;
9496;SDS011;4786;51.270;4.456;2023-03-31T09:42:55;16.20;;;3.90;;
9496;SDS011;4786;51.270;4.456;2023-03-31T09:45:26;15.87;;;4.60;;
9496;SDS011;4786;51.270;4.456;2023-03-31T09:47:56;21.20;;;5.07;;
9496;SDS011;4786;51.270;4.456;2023-03-31T09:50:26;14.73;;;4.57;;
9496;SDS011;4786;51.270;4.456;2023-03-31T09:52:55;19.47;;;4.47;;
9496;SDS011;4786;51.270;4.456;2023-03-31T09:58:16;21.60;;;4.73;;
9496;SDS011;4786;51.270;4.456;2023-03-31T10:00:43;22.03;;;5.13;;
9496;SDS011;4786;51.270;4.456;2023-03-31T10:03:23;18.87;;;4.27;;
9496;SDS011;4786;51.270;4.456;2023-03-31T10:05:52;18.53;;;4.40;;
9496;SDS011;4786;51.270;4.456;2023-03-31T10:11:06;15.97;;;4.53;;
9496;SDS011;4786;51.270;4.456;2023-03-31T10:18:53;17.80;;;4.73;;
9496;SDS011;4786;51.270;4.456;2023-03-31T10:21:22;20.07;;;5.23;;
9496;SDS011;4786;51.270;4.456;2023-03-31T10:23:50;17.67;;;4.97;;
9496;SDS011;4786;51.270;4.456;2023-03-31T10:26:18;17.50;;;4.93;;
9496;SDS011;4786;51.270;4.456;2023-03-31T10:28:50;17.33;;;4.80;;
9496;SDS011;4786;51.270;4.456;2023-03-31T10:31:19;19.90;;;4.90;;
9496;SDS011;4786;51.270;4.456;2023-03-31T10:33:49;22.07;;;5.50;;
9496;SDS011;4786;51.270;4.456;2023-03-31T10:36:20;21.17;;;5.50;;
9496;SDS011;4786;51.270;4.456;2023-03-31T10:38:50;19.27;;;4.93;;
9496;SDS011;4786;51.270;4.456;2023-03-31T10:41:27;14.80;;;4.60;;
9496;SDS011;4786;51.270;4.456;2023-03-31T10:43:55;19.00;;;4.60;;
9496;SDS011;4786;51.270;4.456;2023-03-31T10:46:38;17.77;;;5.80;;
9496;SDS011;4786;51.270;4.456;2023-03-31T10:49:13;21.13;;;5.00;;
9496;SDS011;4786;51.270;4.456;2023-03-31T10:51:50;16.37;;;4.97;;
9496;SDS011;4786;51.270;4.456;2023-03-31T10:54:20;21.60;;;5.60;;
9496;SDS011;4786;51.270;4.456;2023-03-31T10:56:46;25.27;;;5.17;;
9496;SDS011;4786;51.270;4.456;2023-03-31T10:59:38;15.07;;;4.70;;
9496;SDS011;4786;51.270;4.456;2023-03-31T11:07:58;15.07;;;4.77;;
9496;SDS011;4786;51.270;4.456;2023-03-31T11:16:15;16.87;;;4.57;;
9496;SDS011;4786;51.270;4.456;2023-03-31T11:21:32;16.23;;;4.37;;
9496;SDS011;4786;51.270;4.456;2023-03-31T11:24:16;16.27;;;3.93;;
9496;SDS011;4786;51.270;4.456;2023-03-31T11:31:57;15.77;;;4.20;;
9496;SDS011;4786;51.270;4.456;2023-03-31T11:37:25;14.17;;;4.07;;
9496;SDS011;4786;51.270;4.456;2023-03-31T11:42:36;14.67;;;4.03;;
9496;SDS011;4786;51.270;4.456;2023-03-31T11:45:14;13.97;;;3.77;;
9496;SDS011;4786;51.270;4.456;2023-03-31T11:47:54;15.70;;;3.67;;
9496;SDS011;4786;51.270;4.456;2023-03-31T11:50:27;10.63;;;3.33;;
9496;SDS011;4786;51.270;4.456;2023-03-31T11:53:02;15.07;;;3.70;;
9496;SDS011;4786;51.270;4.456;2023-03-31T11:55:32;11.53;;;3.57;;
9496;SDS011;4786;51.270;4.456;2023-03-31T11:58:10;12.47;;;3.50;;
9496;SDS011;4786;51.270;4.456;2023-03-31T12:00:44;10.97;;;3.27;;
9496;SDS011;4786;51.270;4.456;2023-03-31T12:03:20;14.77;;;3.70;;
9496;SDS011;4786;51.270;4.456;2023-03-31T12:05:52;16.07;;;3.67;;
9496;SDS011;4786;51.270;4.456;2023-03-31T12:08:25;9.73;;;3.50;;
9496;SDS011;4786;51.270;4.456;2023-03-31T12:11:04;12.53;;;3.53;;
9496;SDS011;4786;51.270;4.456;2023-03-31T12:19:10;9.43;;;2.83;;
9496;SDS011;4786;51.270;4.456;2023-03-31T12:21:55;11.83;;;2.87;;
9496;SDS011;4786;51.270;4.456;2023-03-31T12:24:28;10.10;;;2.70;;
9496;SDS011;4786;51.270;4.456;2023-03-31T12:29:47;10.23;;;3.03;;
9496;SDS011;4786;51.270;4.456;2023-03-31T12:32:22;9.60;;;3.07;;
9496;SDS011;4786;51.270;4.456;2023-03-31T12:34:56;9.73;;;3.23;;
9496;SDS011;4786;51.270;4.456;2023-03-31T12:40:40;13.43;;;3.10;;
9496;SDS011;4786;51.270;4.456;2023-03-31T12:51:45;9.10;;;2.50;;
9496;SDS011;4786;51.270;4.456;2023-03-31T12:57:27;8.00;;;2.03;;
9496;SDS011;4786;51.270;4.456;2023-03-31T13:02:41;7.80;;;1.80;;
9496;SDS011;4786;51.270;4.456;2023-03-31T13:08:04;5.60;;;1.70;;
9496;SDS011;4786;51.270;4.456;2023-03-31T13:10:32;4.27;;;1.60;;
9496;SDS011;4786;51.270;4.456;2023-03-31T13:13:17;7.23;;;1.90;;
9496;SDS011;4786;51.270;4.456;2023-03-31T13:15:53;5.80;;;1.90;;
9496;SDS011;4786;51.270;4.456;2023-03-31T13:18:25;7.83;;;2.77;;
9496;SDS011;4786;51.270;4.456;2023-03-31T13:20:57;4.63;;;1.97;;
9496;SDS011;4786;51.270;4.456;2023-03-31T13:23:24;3.60;;;1.87;;
9496;SDS011;4786;51.270;4.456;2023-03-31T13:25:51;7.50;;;2.13;;
9496;SDS011;4786;51.270;4.456;2023-03-31T13:30:48;7.63;;;1.90;;
9496;SDS011;4786;51.270;4.456;2023-03-31T13:50:16;4.93;;;1.70;;
9496;SDS011;4786;51.270;4.456;2023-03-31T14:00:58;4.50;;;1.60;;
9496;SDS011;4786;51.270;4.456;2023-03-31T14:07:06;5.43;;;1.50;;
9496;SDS011;4786;51.270;4.456;2023-03-31T14:09:27;2.80;;;1.37;;
9496;SDS011;4786;51.270;4.456;2023-03-31T14:11:59;3.27;;;1.20;;
9496;SDS011;4786;51.270;4.456;2023-03-31T14:14:42;2.93;;;1.00;;
9496;SDS011;4786;51.270;4.456;2023-03-31T14:17:08;2.87;;;1.00;;
9496;SDS011;4786;51.270;4.456;2023-03-31T14:22:26;3.47;;;1.10;;
9496;SDS011;4786;51.270;4.456;2023-03-31T14:25:01;0.97;;;0.77;;
9496;SDS011;4786;51.270;4.456;2023-03-31T14:30:42;2.27;;;1.20;;
9496;SDS011;4786;51.270;4.456;2023-03-31T14:39:10;1.90;;;0.90;;
9496;SDS011;4786;51.270;4.456;2023-03-31T14:41:38;3.40;;;1.37;;
9496;SDS011;4786;51.270;4.456;2023-03-31T14:44:06;2.33;;;1.33;;
9496;SDS011;4786;51.270;4.456;2023-03-31T14:46:37;2.43;;;1.03;;
9496;SDS011;4786;51.270;4.456;2023-03-31T14:49:14;2.27;;;1.00;;
9496;SDS011;4786;51.270;4.456;2023-03-31T14:51:50;2.83;;;1.10;;
9496;SDS011;4786;51.270;4.456;2023-03-31T14:54:18;1.97;;;1.10;;
9496;SDS011;4786;51.270;4.456;2023-03-31T14:56:47;1.80;;;1.10;;
9496;SDS011;4786;51.270;4.456;2023-03-31T14:59:20;4.40;;;1.37;;
9496;SDS011;4786;51.270;4.456;2023-03-31T15:01:50;2.50;;;1.10;;
9496;SDS011;4786;51.270;4.456;2023-03-31T15:04:18;3.13;;;1.30;;
9496;SDS011;4786;51.270;4.456;2023-03-31T15:06:49;2.20;;;1.13;;
9496;SDS011;4786;51.270;4.456;2023-03-31T15:09:22;3.23;;;1.17;;
9496;SDS011;4786;51.270;4.456;2023-03-31T15:12:00;4.60;;;1.37;;
9496;SDS011;4786;51.270;4.456;2023-03-31T15:14:32;4.63;;;1.80;;
9496;SDS011;4786;51.270;4.456;2023-03-31T15:17:16;6.43;;;1.60;;
9496;SDS011;4786;51.270;4.456;2023-03-31T15:19:44;1.30;;;1.03;;
9496;SDS011;4786;51.270;4.456;2023-03-31T15:22:11;3.07;;;1.17;;
9496;SDS011;4786;51.270;4.456;2023-03-31T15:24:43;5.17;;;1.27;;
9496;SDS011;4786;51.270;4.456;2023-03-31T15:27:26;2.30;;;1.10;;
9496;SDS011;4786;51.270;4.456;2023-03-31T15:30:00;1.73;;;1.17;;
9496;SDS011;4786;51.270;4.456;2023-03-31T15:32:29;3.30;;;1.13;;
9496;SDS011;4786;51.270;4.456;2023-03-31T15:35:00;2.13;;;1.33;;
9496;SDS011;4786;51.270;4.456;2023-03-31T15:43:08;2.03;;;1.30;;
9496;SDS011;4786;51.270;4.456;2023-03-31T15:53:37;3.57;;;1.33;;
9496;SDS011;4786;51.270;4.456;2023-03-31T15:56:23;2.63;;;1.23;;
9496;SDS011;4786;51.270;4.456;2023-03-31T15:59:00;3.40;;;1.60;;
9496;SDS011;4786;51.270;4.456;2023-03-31T16:01:48;4.40;;;1.70;;
9496;SDS011;4786;51.270;4.456;2023-03-31T16:04:14;6.73;;;2.00;;
9496;SDS011;4786;51.270;4.456;2023-03-31T16:06:42;9.10;;;2.37;;
9496;SDS011;4786;51.270;4.456;2023-03-31T16:09:20;8.80;;;3.17;;
9496;SDS011;4786;51.270;4.456;2023-03-31T16:11:53;10.67;;;2.97;;
9496;SDS011;4786;51.270;4.456;2023-03-31T16:14:22;6.57;;;2.53;;
9496;SDS011;4786;51.270;4.456;2023-03-31T16:16:58;7.23;;;2.70;;
9496;SDS011;4786;51.270;4.456;2023-03-31T16:19:30;10.93;;;2.93;;
9496;SDS011;4786;51.270;4.456;2023-03-31T16:22:03;9.40;;;2.80;;
9496;SDS011;4786;51.270;4.456;2023-03-31T16:24:31;14.27;;;3.80;;
9496;SDS011;4786;51.270;4.456;2023-03-31T16:27:02;11.00;;;3.17;;
9496;SDS011;4786;51.270;4.456;2023-03-31T16:29:33;12.70;;;3.30;;
9496;SDS011;4786;51.270;4.456;2023-03-31T16:37:21;8.50;;;3.10;;
9496;SDS011;4786;51.270;4.456;2023-03-31T16:39:48;10.33;;;3.27;;
9496;SDS011;4786;51.270;4.456;2023-03-31T16:42:15;10.77;;;3.00;;
9496;SDS011;4786;51.270;4.456;2023-03-31T16:44:41;9.53;;;3.33;;
9496;SDS011;4786;51.270;4.456;2023-03-31T16:47:07;11.50;;;3.10;;
9496;SDS011;4786;51.270;4.456;2023-03-31T16:49:33;8.87;;;2.97;;
9496;SDS011;4786;51.270;4.456;2023-03-31T16:51:59;10.87;;;3.47;;
9496;SDS011;4786;51.270;4.456;2023-03-31T16:54:25;11.70;;;3.17;;
9496;SDS011;4786;51.270;4.456;2023-03-31T16:56:52;10.83;;;3.43;;
9496;SDS011;4786;51.270;4.456;2023-03-31T16:59:18;11.13;;;3.43;;
9496;SDS011;4786;51.270;4.456;2023-03-31T17:01:44;13.20;;;3.40;;
9496;SDS011;4786;51.270;4.456;2023-03-31T17:04:10;9.57;;;2.87;;
9496;SDS011;4786;51.270;4.456;2023-03-31T17:06:36;11.67;;;3.23;;
9496;SDS011;4786;51.270;4.456;2023-03-31T17:09:02;9.13;;;2.53;;
9496;SDS011;4786;51.270;4.456;2023-03-31T17:11:28;10.90;;;3.07;;
9496;SDS011;4786;51.270;4.456;2023-03-31T17:13:54;9.23;;;3.37;;
9496;SDS011;4786;51.270;4.456;2023-03-31T17:16:21;9.10;;;2.83;;
9496;SDS011;4786;51.270;4.456;2023-03-31T17:18:47;7.90;;;3.00;;
9496;SDS011;4786;51.270;4.456;2023-03-31T17:21:13;10.27;;;2.83;;
9496;SDS011;4786;51.270;4.456;2023-03-31T17:23:41;9.27;;;2.63;;
9496;SDS011;4786;51.270;4.456;2023-03-31T17:26:07;8.97;;;2.90;;
9496;SDS011;4786;51.270;4.456;2023-03-31T17:28:34;9.67;;;3.40;;
9496;SDS011;4786;51.270;4.456;2023-03-31T17:31:00;11.17;;;3.47;;
9496;SDS011;4786;51.270;4.456;2023-03-31T17:33:26;10.50;;;3.37;;
9496;SDS011;4786;51.270;4.456;2023-03-31T17:35:56;12.73;;;3.40;;
9496;SDS011;4786;51.270;4.456;2023-03-31T17:38:23;12.27;;;3.77;;
9496;SDS011;4786;51.270;4.456;2023-03-31T17:40:50;11.37;;;3.67;;
9496;SDS011;4786;51.270;4.456;2023-03-31T17:43:16;8.50;;;3.10;;
9496;SDS011;4786;51.270;4.456;2023-03-31T17:45:42;12.43;;;3.60;;
9496;SDS011;4786;51.270;4.456;2023-03-31T17:48:10;11.83;;;3.50;;
9496;SDS011;4786;51.270;4.456;2023-03-31T17:50:36;9.73;;;3.50;;
9496;SDS011;4786;51.270;4.456;2023-03-31T17:53:02;11.03;;;3.60;;
9496;SDS011;4786;51.270;4.456;2023-03-31T17:55:33;12.47;;;3.57;;
9496;SDS011;4786;51.270;4.456;2023-03-31T17:58:02;14.90;;;3.97;;
9496;SDS011;4786;51.270;4.456;2023-03-31T18:00:29;12.17;;;3.60;;
9496;SDS011;4786;51.270;4.456;2023-03-31T18:02:54;13.17;;;4.07;;
9496;SDS011;4786;51.270;4.456;2023-03-31T18:05:21;13.40;;;4.47;;
9496;SDS011;4786;51.270;4.456;2023-03-31T18:07:47;17.27;;;4.40;;
9496;SDS011;4786;51.270;4.456;2023-03-31T18:10:12;14.60;;;4.20;;
9496;SDS011;4786;51.270;4.456;2023-03-31T18:12:39;13.43;;;3.90;;
9496;SDS011;4786;51.270;4.456;2023-03-31T18:15:05;16.00;;;4.37;;
9496;SDS011;4786;51.270;4.456;2023-03-31T18:17:32;11.60;;;3.70;;
9496;SDS011;4786;51.270;4.456;2023-03-31T18:19:59;12.37;;;4.00;;
9496;SDS011;4786;51.270;4.456;2023-03-31T18:22:25;16.73;;;4.23;;
9496;SDS011;4786;51.270;4.456;2023-03-31T18:24:51;13.87;;;4.23;;
9496;SDS011;4786;51.270;4.456;2023-03-31T18:27:17;16.10;;;5.37;;
9496;SDS011;4786;51.270;4.456;2023-03-31T18:29:44;16.10;;;5.43;;
9496;SDS011;4786;51.270;4.456;2023-03-31T18:32:10;16.60;;;5.67;;
9496;SDS011;4786;51.270;4.456;2023-03-31T18:34:37;16.17;;;5.47;;
9496;SDS011;4786;51.270;4.456;2023-03-31T18:37:03;16.93;;;4.70;;
9496;SDS011;4786;51.270;4.456;2023-03-31T18:39:29;17.63;;;4.80;;
9496;SDS011;4786;51.270;4.456;2023-03-31T18:41:55;13.83;;;4.60;;
9496;SDS011;4786;51.270;4.456;2023-03-31T18:44:23;20.60;;;5.67;;